createdAt,value
2022-11-27T00:01:36.676Z,100652.69
2022-11-27T00:04:05.082Z,100656.91
2022-11-27T00:06:32.626Z,100648.56
2022-11-27T00:09:05.679Z,100655.31
2022-11-27T00:11:33.399Z,100645.16
2022-11-27T00:14:00.945Z,100645.13
2022-11-27T00:16:28.883Z,100646.88
2022-11-27T00:18:55.936Z,100651.06
2022-11-27T00:21:27.906Z,100651.03
2022-11-27T00:23:57.095Z,100645.13
2022-11-27T00:26:24.437Z,100634.06
2022-11-27T00:28:52.025Z,100636.59
2022-11-27T00:31:29.576Z,100623.97
2022-11-27T00:34:02.648Z,100637.44
2022-11-27T00:36:34.663Z,100635.66
2022-11-27T00:39:02.086Z,100627.25
2022-11-27T00:41:30.931Z,100632.28
2022-11-27T00:43:58.567Z,100626.44
2022-11-27T00:46:29.917Z,100623.97
2022-11-27T00:48:59.270Z,100618.06
2022-11-27T00:51:27.356Z,100607.19
2022-11-27T00:53:55.057Z,100600.44
2022-11-27T00:56:35.180Z,100601.28
2022-11-27T00:59:02.948Z,100608.03
2022-11-27T01:01:40.976Z,100594.50
2022-11-27T01:04:12.674Z,100594.50
2022-11-27T01:06:40.232Z,100591.09
2022-11-27T01:09:07.956Z,100591.19
2022-11-27T01:11:35.960Z,100595.44
2022-11-27T01:14:09.068Z,100603.06
2022-11-27T01:16:42.657Z,100599.78
2022-11-27T01:22:41.057Z,100589.81
2022-11-27T01:25:08.850Z,100587.34
2022-11-27T01:27:35.587Z,100587.38
2022-11-27T01:30:02.388Z,100596.72
2022-11-27T01:32:29.117Z,100587.56
2022-11-27T01:34:55.907Z,100571.69
2022-11-27T01:37:22.711Z,100570.00
2022-11-27T01:39:49.528Z,100574.25
2022-11-27T01:42:16.272Z,100576.78
2022-11-27T01:44:51.309Z,100569.16
2022-11-27T01:47:39.822Z,100572.53
2022-11-27T01:50:23.457Z,100566.59
2022-11-27T01:52:55.903Z,100574.13
2022-11-27T01:55:47.248Z,100569.09
2022-11-27T01:58:28.346Z,100568.19
2022-11-27T02:00:55.499Z,100571.63
2022-11-27T02:03:23.441Z,100574.16
2022-11-27T02:05:50.298Z,100585.16
2022-11-27T02:08:18.417Z,100575.94
2022-11-27T02:11:10.919Z,100562.56
2022-11-27T02:13:48.498Z,100564.22
2022-11-27T02:16:35.957Z,100560.06
2022-11-27T02:19:51.560Z,100550.00
2022-11-27T02:22:51.415Z,100546.56
2022-11-27T02:26:02.020Z,100536.44
2022-11-27T02:29:03.556Z,100529.66
2022-11-27T02:32:04.029Z,100517.91
2022-11-27T02:34:45.819Z,100516.22
2022-11-27T02:37:39.379Z,100508.75
2022-11-27T02:40:38.379Z,100507.97
2022-11-27T02:43:32.587Z,100492.00
2022-11-27T02:46:02.612Z,100496.22
2022-11-27T02:48:53.558Z,100495.44
2022-11-27T02:51:28.939Z,100499.66
2022-11-27T02:54:02.711Z,100497.25
2022-11-27T02:56:34.618Z,100492.28
2022-11-27T02:59:07.908Z,100489.81
2022-11-27T03:01:42.689Z,100488.19
2022-11-27T03:04:18.154Z,100492.47
2022-11-27T03:06:53.996Z,100498.44
2022-11-27T03:09:39.435Z,100490.94
2022-11-27T03:12:09.953Z,100472.47
2022-11-27T03:14:40.908Z,100475.06
2022-11-27T03:17:41.693Z,100473.50
2022-11-27T03:20:24.202Z,100468.44
2022-11-27T03:22:54.527Z,100467.66
2022-11-27T03:25:23.013Z,100472.78
2022-11-27T03:27:58.085Z,100459.41
2022-11-27T03:30:25.016Z,100455.25
2022-11-27T03:32:51.817Z,100445.16
2022-11-27T03:35:24.896Z,100451.91
2022-11-27T03:37:53.539Z,100446.81
2022-11-27T03:40:27.672Z,100438.34
2022-11-27T03:43:31.514Z,100452.59
2022-11-27T03:46:05.815Z,100445.03
2022-11-27T03:48:48.024Z,100456.06
2022-11-27T03:51:30.045Z,100450.25
2022-11-27T03:54:10.952Z,100451.19
2022-11-27T03:56:55.908Z,100445.34
2022-11-27T03:59:46.023Z,100434.50
2022-11-27T04:02:15.202Z,100432.03
2022-11-27T04:04:42.209Z,100432.97
2022-11-27T04:07:17.596Z,100428.06
2022-11-27T04:09:45.013Z,100428.91
2022-11-27T04:12:15.004Z,100420.56
2022-11-27T04:14:42.171Z,100413.00
2022-11-27T04:17:11.903Z,100412.25
2022-11-27T04:19:39.012Z,100403.03
2022-11-27T04:22:07.203Z,100402.28
2022-11-27T04:24:34.192Z,100415.88
2022-11-27T04:27:00.986Z,100421.06
2022-11-27T04:29:27.843Z,100415.31
2022-11-27T04:31:55.169Z,100417.91
2022-11-27T04:34:22.151Z,100407.94
2022-11-27T04:36:49.235Z,100408.91
2022-11-27T04:39:16.569Z,100398.88
2022-11-27T04:41:43.367Z,100410.75
2022-11-27T04:44:14.312Z,100412.44
2022-11-27T04:46:41.326Z,100407.50
2022-11-27T04:49:16.142Z,100399.13
2022-11-27T04:51:45.880Z,100405.09
2022-11-27T04:54:13.292Z,100398.41
2022-11-27T04:56:40.145Z,100395.88
2022-11-27T04:59:06.958Z,100397.63
2022-11-27T05:01:33.836Z,100381.63
2022-11-27T05:04:00.689Z,100376.63
2022-11-27T05:06:27.574Z,100384.28
2022-11-27T05:09:01.869Z,100378.44
2022-11-27T05:11:31.195Z,100378.47
2022-11-27T05:14:18.363Z,100369.19
2022-11-27T05:16:55.271Z,100380.16
2022-11-27T05:19:25.035Z,100381.84
2022-11-27T05:21:52.809Z,100380.19
2022-11-27T05:24:23.634Z,100372.66
2022-11-27T05:26:50.715Z,100362.53
2022-11-27T05:29:18.615Z,100362.56
2022-11-27T05:31:45.929Z,100358.31
2022-11-27T05:34:14.173Z,100360.03
2022-11-27T05:36:41.858Z,100351.66
2022-11-27T05:39:11.350Z,100351.63
2022-11-27T05:41:41.411Z,100360.94
2022-11-27T05:44:19.137Z,100355.00
2022-11-27T05:46:46.158Z,100346.63
2022-11-27T05:49:15.963Z,100355.06
2022-11-27T05:51:50.497Z,100350.84
2022-11-27T05:54:18.679Z,100347.50
2022-11-27T05:56:45.874Z,100350.88
2022-11-27T05:59:12.970Z,100336.53
2022-11-27T06:01:40.131Z,100335.00
2022-11-27T06:04:07.175Z,100330.88
2022-11-27T06:06:34.222Z,100327.53
2022-11-27T06:09:01.305Z,100329.16
2022-11-27T06:11:28.260Z,100334.25
2022-11-27T06:13:55.065Z,100329.19
2022-11-27T06:16:24.301Z,100320.75
2022-11-27T06:18:54.460Z,100311.50
2022-11-27T06:21:24.120Z,100304.75
2022-11-27T06:23:55.929Z,100295.53
2022-11-27T06:26:32.453Z,100290.44
2022-11-27T06:29:01.693Z,100286.22
2022-11-27T06:31:33.460Z,100280.34
2022-11-27T06:34:02.335Z,100272.78
2022-11-27T06:36:35.888Z,100274.50
2022-11-27T06:39:06.153Z,100263.50
2022-11-27T06:41:33.381Z,100255.06
2022-11-27T06:44:01.519Z,100248.31
2022-11-27T06:46:30.001Z,100252.53
2022-11-27T06:48:58.635Z,100245.78
2022-11-27T06:51:35.625Z,100240.75
2022-11-27T06:54:02.936Z,100239.94
2022-11-27T07:09:43.332Z,100245.88
2022-11-27T07:12:10.345Z,100256.91
2022-11-27T07:14:37.314Z,100251.13
2022-11-27T07:17:04.357Z,100241.97
2022-11-27T07:19:31.148Z,100231.06
2022-11-27T07:21:57.903Z,100227.69
2022-11-27T07:24:24.771Z,100220.16
2022-11-27T07:26:51.523Z,100224.41
2022-11-27T07:29:18.248Z,100226.13
2022-11-27T07:31:45.087Z,100221.09
2022-11-27T07:34:15.962Z,100220.34
2022-11-27T07:36:46.706Z,100232.09
2022-11-27T07:39:13.452Z,100214.44
2022-11-27T07:41:40.197Z,100224.59
2022-11-27T07:44:06.923Z,100248.25
2022-11-27T07:46:33.667Z,100249.97
2022-11-27T07:49:00.827Z,100250.88
2022-11-27T07:51:28.544Z,100253.44
2022-11-27T07:53:55.332Z,100255.22
2022-11-27T07:56:22.260Z,100247.66
2022-11-27T07:59:00.191Z,100256.16
2022-11-27T08:01:28.339Z,100240.22
2022-11-27T08:04:03.147Z,100258.03
2022-11-27T08:06:30.172Z,100257.28
2022-11-27T08:09:02.215Z,100252.38
2022-11-27T08:11:33.040Z,100254.16
2022-11-27T08:14:06.707Z,100260.19
2022-11-27T08:16:38.395Z,100251.00
2022-11-27T08:19:05.278Z,100246.88
2022-11-27T08:21:33.210Z,100251.19
2022-11-27T08:24:00.133Z,100241.13
2022-11-27T08:26:27.783Z,100240.34
2022-11-27T08:28:56.518Z,100235.28
2022-11-27T08:31:24.235Z,100242.09
2022-11-27T08:33:54.315Z,100231.13
2022-11-27T08:36:23.571Z,100242.94
2022-11-27T08:42:43.679Z,100242.97
2022-11-27T08:45:13.860Z,100232.00
2022-11-27T08:47:43.341Z,100226.09
2022-11-27T08:50:10.636Z,100230.31
2022-11-27T08:52:49.799Z,100232.84
2022-11-27T08:55:21.442Z,100231.16
2022-11-27T08:57:48.364Z,100215.06
2022-11-27T09:00:15.881Z,100223.53
2022-11-27T09:02:42.655Z,100225.25
2022-11-27T09:05:09.982Z,100219.34
2022-11-27T09:07:36.912Z,100226.13
2022-11-27T09:10:04.619Z,100210.09
2022-11-27T09:12:46.274Z,100219.38
2022-11-27T09:15:14.255Z,100206.69
2022-11-27T09:17:55.476Z,100204.16
2022-11-27T09:20:25.392Z,100204.19
2022-11-27T09:22:54.941Z,100189.81
2022-11-27T09:25:24.915Z,100188.94
2022-11-27T09:27:51.865Z,100191.50
2022-11-27T09:30:25.138Z,100183.88
2022-11-27T09:32:53.123Z,100185.63
2022-11-27T09:35:29.121Z,100189.00
2022-11-27T09:37:56.039Z,100189.84
2022-11-27T09:40:25.925Z,100178.03
2022-11-27T09:43:09.878Z,100172.09
2022-11-27T09:45:45.392Z,100189.03
2022-11-27T09:48:20.545Z,100167.06
2022-11-27T09:50:51.527Z,100175.47
2022-11-27T09:53:42.199Z,100155.16
2022-11-27T09:56:15.494Z,100156.81
2022-11-27T09:58:49.197Z,100161.00
2022-11-27T10:01:36.554Z,100156.78
2022-11-27T10:04:12.367Z,100150.84
2022-11-27T10:07:14.722Z,100149.97
2022-11-27T10:10:15.001Z,100132.19
2022-11-27T10:13:13.857Z,100132.19
2022-11-27T10:16:07.502Z,100129.63
2022-11-27T10:19:00.179Z,100123.72
2022-11-27T10:21:58.431Z,100121.22
2022-11-27T10:25:19.036Z,100122.94
2022-11-27T10:28:33.450Z,100117.84
2022-11-27T10:31:17.565Z,100117.00
2022-11-27T10:33:56.432Z,100105.16
2022-11-27T10:36:34.069Z,100100.97
2022-11-27T10:39:04.266Z,100093.38
2022-11-27T10:41:49.137Z,100089.16
2022-11-27T10:44:33.403Z,100079.03
2022-11-27T10:47:07.227Z,100084.97
2022-11-27T10:49:39.285Z,100088.34
2022-11-27T10:52:10.914Z,100076.53
2022-11-27T10:54:39.571Z,100067.22
2022-11-27T10:57:40.333Z,100059.56
2022-11-27T11:00:23.896Z,100054.47
2022-11-27T11:03:05.413Z,100056.97
2022-11-27T11:05:56.976Z,100049.34
2022-11-27T11:08:21.590Z,100041.66
2022-11-27T11:11:04.617Z,100040.72
2022-11-27T11:13:42.909Z,100028.03
2022-11-27T11:16:14.903Z,100032.16
2022-11-27T11:18:53.173Z,100015.16
2022-11-27T11:21:32.162Z,100011.72
2022-11-27T11:24:06.974Z,100015.03
2022-11-27T11:26:44.494Z,100002.25
2022-11-27T11:29:45.248Z,100002.22
2022-11-27T11:32:23.373Z,99997.09
2022-11-27T11:35:28.664Z,99987.72
2022-11-27T11:37:57.446Z,99989.38
2022-11-27T11:40:30.845Z,99977.50
2022-11-27T11:43:27.377Z,99972.34
2022-11-27T11:45:56.174Z,99967.22
2022-11-27T11:48:26.428Z,99968.84
2022-11-27T11:51:06.019Z,99967.06
2022-11-27T11:53:42.722Z,99963.59
2022-11-27T11:56:37.550Z,99953.38
2022-11-27T11:59:49.921Z,99950.78
2022-11-27T12:03:04.910Z,99938.84
2022-11-27T12:06:18.885Z,99943.94
2022-11-27T12:08:51.660Z,99935.44
2022-11-27T12:11:44.342Z,99944.72
2022-11-27T12:14:37.125Z,99930.22
2022-11-27T12:17:46.631Z,99921.72
2022-11-27T12:20:55.848Z,99916.59
2022-11-27T12:23:37.593Z,99912.41
2022-11-27T12:26:37.576Z,99910.72
2022-11-27T12:29:29.883Z,99898.00
2022-11-27T12:32:31.792Z,99892.94
2022-11-27T12:35:22.923Z,99887.00
2022-11-27T12:38:26.486Z,99887.03
2022-11-27T12:41:25.666Z,99876.06
2022-11-27T12:44:00.003Z,99866.75
2022-11-27T12:46:52.887Z,99853.25
2022-11-27T12:49:37.704Z,99852.44
2022-11-27T12:52:25.615Z,99839.81
2022-11-27T12:55:21.016Z,99834.84
2022-11-27T12:58:14.939Z,99828.22
2022-11-27T13:00:43.978Z,99823.25
2022-11-27T13:03:29.180Z,99821.63
2022-11-27T13:06:05.486Z,99819.22
2022-11-27T13:09:03.431Z,99818.50
2022-11-27T13:11:37.820Z,99818.59
2022-11-27T13:14:22.266Z,99813.63
2022-11-27T13:17:02.890Z,99814.53
2022-11-27T13:19:49.494Z,99817.09
2022-11-27T13:22:27.681Z,99812.88
2022-11-27T13:24:56.620Z,99812.06
2022-11-27T13:27:30.419Z,99806.19
2022-11-27T13:30:07.784Z,99803.69
2022-11-27T13:32:49.245Z,99818.13
2022-11-27T13:35:38.704Z,99816.41
2022-11-27T13:38:24.169Z,99818.19
2022-11-27T13:40:55.866Z,99822.44
2022-11-27T13:43:44.208Z,99824.97
2022-11-27T13:46:28.828Z,99817.38
2022-11-27T13:49:05.681Z,99822.50
2022-11-27T13:51:39.835Z,99829.28
2022-11-27T13:54:16.277Z,99806.44
2022-11-27T13:56:43.419Z,99814.06
2022-11-27T13:59:24.494Z,99799.69
2022-11-27T14:02:05.172Z,99792.09
2022-11-27T14:04:34.194Z,99800.59
2022-11-27T14:07:11.710Z,99793.84
2022-11-27T14:09:45.244Z,99796.44
2022-11-27T14:12:27.144Z,99790.53
2022-11-27T14:15:17.648Z,99793.97
2022-11-27T14:17:48.566Z,99790.63
2022-11-27T14:20:18.052Z,99795.72
2022-11-27T14:23:11.291Z,99792.34
2022-11-27T14:25:40.310Z,99787.31
2022-11-27T14:28:21.505Z,99783.09
2022-11-27T14:30:56.865Z,99781.41
2022-11-27T14:33:31.006Z,99783.94
2022-11-27T14:36:07.464Z,99777.19
2022-11-27T14:38:35.599Z,99757.75
2022-11-27T14:41:21.624Z,99769.63
2022-11-27T14:43:49.128Z,99752.69
2022-11-27T14:46:21.923Z,99766.25
2022-11-27T14:48:57.743Z,99757.81
2022-11-27T14:51:35.773Z,99754.44
2022-11-27T14:54:34.992Z,99743.44
2022-11-27T14:57:02.617Z,99753.59
2022-11-27T14:59:29.446Z,99757.84
2022-11-27T15:02:11.594Z,99756.16
2022-11-27T15:04:44.203Z,99768.00
2022-11-27T15:07:29.839Z,99766.31
2022-11-27T15:09:59.693Z,99765.47
2022-11-27T15:12:44.007Z,99762.91
2022-11-27T15:15:27.425Z,99754.47
2022-11-27T15:18:01.567Z,99762.06
2022-11-27T15:20:40.819Z,99756.16
2022-11-27T15:23:24.783Z,99758.66
2022-11-27T15:26:17.839Z,99748.53
2022-11-27T15:28:49.495Z,99745.16
2022-11-27T15:31:23.924Z,99738.41
2022-11-27T15:34:03.864Z,99741.78
2022-11-27T15:36:43.076Z,99745.19
2022-11-27T15:39:57.345Z,99736.72
2022-11-27T15:42:26.253Z,99736.75
2022-11-27T15:44:56.772Z,99735.06
2022-11-27T15:47:32.253Z,99715.63
2022-11-27T15:50:00.243Z,99713.97
2022-11-27T15:52:28.047Z,99711.41
2022-11-27T15:54:56.518Z,99717.34
2022-11-27T15:57:24.306Z,99713.97
2022-11-27T15:59:51.372Z,99712.28
2022-11-27T16:02:18.645Z,99707.19
2022-11-27T16:04:45.464Z,99713.97
2022-11-27T16:07:12.303Z,99711.44
2022-11-27T16:09:39.685Z,99713.97
2022-11-27T16:12:06.917Z,99706.38
2022-11-27T16:14:33.793Z,99703.00
2022-11-27T16:17:01.360Z,99694.53
2022-11-27T16:19:28.436Z,99695.41
2022-11-27T16:21:55.221Z,99695.41
2022-11-27T16:24:22.018Z,99685.25
2022-11-27T16:26:48.808Z,99688.63
2022-11-27T16:29:15.668Z,99687.78
2022-11-27T16:31:42.526Z,99664.16
2022-11-27T16:34:09.453Z,99649.81
2022-11-27T16:36:36.271Z,99654.03
2022-11-27T16:39:03.061Z,99655.72
2022-11-27T16:41:29.781Z,99647.28
2022-11-27T16:43:57.082Z,99640.53
2022-11-27T16:46:28.452Z,99643.06
2022-11-27T16:48:58.776Z,99638.88
2022-11-27T16:51:29.306Z,99628.72
2022-11-27T16:53:59.397Z,99629.56
2022-11-27T16:56:29.131Z,99626.22
2022-11-27T16:59:02.762Z,99621.16
2022-11-27T17:01:37.009Z,99608.50
2022-11-27T17:04:08.734Z,99609.34
2022-11-27T17:06:38.279Z,99601.78
2022-11-27T17:10:12.046Z,99587.44
2022-11-27T17:12:38.857Z,99593.38
2022-11-27T17:15:09.636Z,99597.59
2022-11-27T17:17:40.220Z,99591.69
2022-11-27T17:20:08.310Z,99579.06
2022-11-27T17:22:35.060Z,99586.66
2022-11-27T17:25:01.877Z,99580.72
2022-11-27T17:27:28.573Z,99592.53
2022-11-27T17:29:55.318Z,99577.38
2022-11-27T17:32:22.204Z,99578.19
2022-11-27T17:34:49.251Z,99583.28
2022-11-27T17:37:16.084Z,99580.75
2022-11-27T17:39:43.867Z,99579.06
2022-11-27T17:42:13.883Z,99563.88
2022-11-27T17:44:43.018Z,99564.69
2022-11-27T17:47:10.131Z,99562.16
2022-11-27T17:49:36.885Z,99557.13
2022-11-27T17:52:06.479Z,99551.19
2022-11-27T17:54:34.818Z,99562.16
2022-11-27T17:57:01.963Z,99564.69
2022-11-27T17:59:28.885Z,99568.06
2022-11-27T18:01:55.809Z,99563.84
2022-11-27T18:04:23.619Z,99565.53
2022-11-27T18:06:51.307Z,99548.69
2022-11-27T18:09:21.948Z,99563.88
2022-11-27T18:11:57.340Z,99555.41
2022-11-27T18:14:27.217Z,99550.38
2022-11-27T18:16:54.369Z,99541.94
2022-11-27T18:19:22.554Z,99519.19
2022-11-27T18:21:49.451Z,99534.34
2022-11-27T18:24:24.879Z,99518.34
2022-11-27T18:27:09.904Z,99531.00
2022-11-27T18:29:40.718Z,99519.19
2022-11-27T18:32:08.721Z,99516.69
2022-11-27T18:34:35.725Z,99508.25
2022-11-27T18:37:03.334Z,99509.09
2022-11-27T18:39:31.433Z,99509.91
2022-11-27T18:41:58.480Z,99515.00
2022-11-27T18:44:25.407Z,99503.19
2022-11-27T18:46:52.718Z,99497.28
2022-11-27T18:49:19.581Z,99502.34
2022-11-27T18:51:46.371Z,99498.16
2022-11-27T18:54:13.139Z,99499.81
2022-11-27T18:56:39.966Z,99497.28
2022-11-27T18:59:08.102Z,99494.75
2022-11-27T19:01:42.040Z,99497.28
2022-11-27T19:04:11.423Z,99501.50
2022-11-27T19:06:42.034Z,99493.91
2022-11-27T19:09:10.966Z,99498.13
2022-11-27T19:11:39.008Z,99499.81
2022-11-27T19:14:06.746Z,99492.25
2022-11-27T19:16:44.210Z,99485.50
2022-11-27T19:19:52.415Z,99471.16
2022-11-27T19:22:00.766Z,99465.25
2022-11-27T19:24:27.710Z,99454.31
2022-11-27T19:26:54.559Z,99449.25
2022-11-27T19:29:21.279Z,99453.44
2022-11-27T19:31:48.038Z,99455.13
2022-11-27T19:34:15.070Z,99460.19
2022-11-27T19:36:42.013Z,99453.44
2022-11-27T19:39:14.275Z,99466.94
2022-11-27T19:41:43.151Z,99467.78
2022-11-27T19:44:12.703Z,99459.38
2022-11-27T19:46:41.037Z,99459.34
2022-11-27T19:49:14.681Z,99456.81
2022-11-27T19:51:41.618Z,99456.81
2022-11-27T19:54:10.884Z,99467.78
2022-11-27T19:56:39.760Z,99462.72
2022-11-27T19:59:07.242Z,99456.00
2022-11-27T20:01:34.263Z,99456.81
2022-11-27T20:04:03.168Z,99456.81
2022-11-27T20:06:30.240Z,99444.16
2022-11-27T20:09:04.226Z,99423.94
2022-11-27T20:11:35.537Z,99421.41
2022-11-27T20:14:04.720Z,99426.50
2022-11-27T20:16:32.977Z,99435.75
2022-11-27T20:19:02.185Z,99429.03
2022-11-27T20:21:29.253Z,99412.16
2022-11-27T20:23:59.467Z,99407.13
2022-11-27T20:26:29.064Z,99403.75
2022-11-27T20:28:57.970Z,99398.72
2022-11-27T20:31:29.416Z,99395.34
2022-11-27T20:34:03.369Z,99393.69
2022-11-27T20:36:33.578Z,99389.47
2022-11-27T20:39:01.611Z,99388.59
2022-11-27T20:41:29.873Z,99388.59
2022-11-27T20:44:01.918Z,99380.19
2022-11-27T20:46:29.152Z,99373.47
2022-11-27T20:48:56.934Z,99365.06
2022-11-27T20:51:28.715Z,99375.16
2022-11-27T20:53:58.154Z,99372.63
2022-11-27T20:56:26.168Z,99374.31
2022-11-27T20:58:53.890Z,99385.25
2022-11-27T21:01:29.620Z,99375.13
2022-11-27T21:03:58.583Z,99370.09
2022-11-27T21:06:29.540Z,99367.53
2022-11-27T21:08:56.428Z,99365.84
2022-11-27T21:11:30.879Z,99374.25
2022-11-27T21:14:06.271Z,99370.88
2022-11-27T21:16:37.427Z,99370.00
2022-11-27T21:19:28.497Z,99364.09
2022-11-27T21:21:56.494Z,99360.72
2022-11-27T21:24:28.597Z,99358.19
2022-11-27T21:26:55.709Z,99356.47
2022-11-27T21:29:25.298Z,99347.19
2022-11-27T21:31:52.993Z,99349.69
2022-11-27T21:34:19.752Z,99351.38
2022-11-27T21:36:46.587Z,99343.78
2022-11-27T21:39:20.828Z,99349.66
2022-11-27T21:41:53.995Z,99349.66
2022-11-27T21:44:22.642Z,99353.88
2022-11-27T21:46:50.705Z,99358.09
2022-11-27T21:49:20.607Z,99353.91
2022-11-27T21:51:52.503Z,99361.47
2022-11-27T21:54:19.640Z,99346.25
2022-11-27T21:56:49.842Z,99336.16
2022-11-27T21:59:16.624Z,99336.16
2022-11-27T22:01:45.360Z,99331.94
2022-11-27T22:04:12.457Z,99320.97
2022-11-27T22:06:42.674Z,99320.09
2022-11-27T22:09:14.977Z,99325.13
2022-11-27T22:11:42.891Z,99325.16
2022-11-27T22:14:10.080Z,99320.09
2022-11-27T22:16:44.720Z,99310.78
2022-11-27T22:19:12.796Z,99322.63
2022-11-27T22:21:39.619Z,99306.63
2022-11-27T22:24:07.022Z,99308.28
2022-11-27T22:26:33.854Z,99299.03
2022-11-27T22:29:02.751Z,99303.25
2022-11-27T22:31:35.314Z,99296.53
2022-11-27T22:34:02.125Z,99301.59
2022-11-27T22:36:34.698Z,99287.25
2022-11-27T22:39:05.760Z,99290.59
2022-11-27T22:41:36.668Z,99284.69
2022-11-27T22:44:15.069Z,99277.09
2022-11-27T22:46:42.739Z,99276.28
2022-11-27T22:49:13.448Z,99271.19
2022-11-27T22:51:40.638Z,99261.94
2022-11-27T22:54:10.486Z,99261.06
2022-11-27T22:56:37.557Z,99255.16
2022-11-27T22:59:30.991Z,99260.22
2022-11-27T23:01:53.275Z,99261.91
2022-11-27T23:04:20.066Z,99258.53
2022-11-27T23:06:48.457Z,99254.25
2022-11-27T23:09:18.070Z,99248.34
2022-11-27T23:11:45.379Z,99254.28
2022-11-27T23:14:12.133Z,99258.47
2022-11-27T23:16:39.350Z,99237.38
2022-11-27T23:19:06.225Z,99248.31
2022-11-27T23:21:37.190Z,99239.03
2022-11-27T23:24:06.380Z,99238.19
2022-11-27T23:26:33.710Z,99236.47
2022-11-27T23:29:00.488Z,99230.56
2022-11-27T23:31:34.118Z,99233.91
2022-11-27T23:34:05.157Z,99210.28
2022-11-27T23:36:32.585Z,99217.03
2022-11-27T23:39:01.470Z,99229.66
2022-11-27T23:41:29.070Z,99223.75
2022-11-27T23:43:56.985Z,99222.06
2022-11-27T23:46:28.467Z,99218.66
2022-11-27T23:48:58.336Z,99216.09
2022-11-27T23:51:29.762Z,99210.16
2022-11-27T23:53:57.017Z,99200.03
2022-11-27T23:56:28.123Z,99207.59
2022-11-27T23:58:56.464Z,99200.84
